Time;durP1;ratioP1;P1;durP2;ratioP2;P2;SDS_P1;SDS_P2;PMS_P1;PMS_P2;Temp;Humidity;BMP_temperature;BMP_pressure;BME280_temperature;BME280_humidity;BME280_pressure;Samples;Min_cycle;Max_cycle;Signal;HPM_P1;HPM_P2
2023/06/04 00:00:05;;;;;;;3.65;2.20;;;;;;;;;;5094318;28;20047;-63
2023/06/04 00:02:31;;;;;;;2.42;1.90;;;;;;;;;;5094250;28;20042;-64
2023/06/04 00:04:56;;;;;;;3.25;2.40;;;;;;;;;;5094328;28;20027;-63
2023/06/04 00:07:22;;;;;;;2.30;2.10;;;;;;;;;;5094507;28;20532;-63
2023/06/04 00:09:47;;;;;;;2.58;2.15;;;;;;;;;;5094268;28;20035;-63
2023/06/04 00:12:14;;;;;;;2.40;2.20;;;;;;;;;;5094475;28;20024;-63
2023/06/04 00:14:39;;;;;;;2.10;2.00;;;;;;;;;;5094126;28;20039;-63
2023/06/04 00:17:05;;;;;;;2.47;2.28;;;;;;;;;;5093969;28;20024;-63
2023/06/04 00:19:30;;;;;;;2.30;2.15;;;;;;;;;;5094084;28;20020;-64
2023/06/04 00:21:56;;;;;;;4.75;2.40;;;;;;;;;;5094284;28;20024;-63
2023/06/04 00:24:21;;;;;;;2.70;2.50;;;;;;;;;;5093837;28;20040;-64
2023/06/04 00:26:47;;;;;;;4.25;2.00;;;;;;;;;;5094112;28;20066;-64
2023/06/04 00:29:12;;;;;;;2.50;2.30;;;;;;;;;;5093885;28;20460;-64
2023/06/04 00:31:38;;;;;;;3.17;2.20;;;;;;;;;;5094056;28;20024;-64
2023/06/04 00:34:04;;;;;;;2.78;2.03;;;;;;;;;;5093753;28;20028;-64
2023/06/04 00:36:29;;;;;;;2.50;2.30;;;;;;;;;;5093599;28;20023;-63
2023/06/04 00:38:55;;;;;;;2.30;2.10;;;;;;;;;;5093538;28;20115;-64
2023/06/04 00:41:21;;;;;;;2.20;2.00;;;;;;;;;;5093854;28;20111;-64
2023/06/04 00:43:55;;;;;;;2.30;2.10;;;;;;;;;;5093843;28;20517;-64
2023/06/04 00:46:25;;;;;;;2.40;2.20;;;;;;;;;;5093831;28;20024;-63
2023/06/04 00:48:51;;;;;;;3.40;2.70;;;;;;;;;;5093494;28;20036;-63
2023/06/04 00:51:16;;;;;;;2.20;2.00;;;;;;;;;;5093677;28;20042;-64
2023/06/04 00:53:42;;;;;;;2.50;2.30;;;;;;;;;;5093456;28;20099;-64
2023/06/04 00:56:08;;;;;;;2.40;2.20;;;;;;;;;;5093348;28;20438;-64
2023/06/04 00:58:39;;;;;;;2.42;2.22;;;;;;;;;;5093322;28;20024;-64
2023/06/04 01:01:07;;;;;;;2.03;1.92;;;;;;;;;;5093543;28;20107;-63
2023/06/04 01:03:37;;;;;;;2.33;2.13;;;;;;;;;;5093557;28;20395;-64
2023/06/04 01:06:21;;;;;;;2.08;1.95;;;;;;;;;;5093114;28;20028;-63
2023/06/04 01:08:50;;;;;;;2.28;2.10;;;;;;;;;;5093139;28;20028;-63
2023/06/04 01:11:15;;;;;;;2.72;2.03;;;;;;;;;;5093047;28;20024;-63
2023/06/04 01:13:41;;;;;;;2.40;2.10;;;;;;;;;;5092304;28;20035;-63
2023/06/04 01:16:10;;;;;;;2.30;2.10;;;;;;;;;;5093015;28;20024;-63
2023/06/04 01:18:38;;;;;;;3.50;2.22;;;;;;;;;;5092949;28;20107;-64
2023/06/04 01:21:08;;;;;;;2.22;2.03;;;;;;;;;;5092942;28;20040;-64
2023/06/04 01:23:38;;;;;;;2.10;1.90;;;;;;;;;;5093160;28;20028;-64
2023/06/04 01:26:05;;;;;;;3.08;1.90;;;;;;;;;;5092781;28;20483;-63
2023/06/04 01:28:34;;;;;;;2.67;2.42;;;;;;;;;;5092899;28;20024;-63
2023/06/04 01:31:01;;;;;;;2.35;2.00;;;;;;;;;;5092760;28;20020;-63
2023/06/04 01:33:27;;;;;;;2.15;2.00;;;;;;;;;;5092975;28;20032;-63
2023/06/04 01:35:53;;;;;;;2.22;2.08;;;;;;;;;;5092662;28;20051;-64
2023/06/04 01:38:19;;;;;;;3.08;2.00;;;;;;;;;;5092510;28;20077;-63
2023/06/04 01:40:45;;;;;;;2.40;2.20;;;;;;;;;;5092691;28;20032;-64
2023/06/04 01:43:11;;;;;;;2.83;2.08;;;;;;;;;;5092567;28;20495;-63
2023/06/04 01:45:36;;;;;;;2.22;2.03;;;;;;;;;;5092847;28;20028;-63
2023/06/04 01:48:04;;;;;;;2.13;1.92;;;;;;;;;;5092476;28;20028;-64
2023/06/04 01:50:30;;;;;;;2.20;2.00;;;;;;;;;;5092630;28;20069;-63
2023/06/04 01:52:56;;;;;;;2.08;1.90;;;;;;;;;;5092751;28;20028;-63
2023/06/04 01:55:22;;;;;;;2.10;1.90;;;;;;;;;;5092526;28;20387;-64
2023/06/04 01:57:47;;;;;;;2.42;2.03;;;;;;;;;;5092387;28;20480;-63
2023/06/04 02:00:14;;;;;;;3.45;2.10;;;;;;;;;;5092512;28;20058;-63
2023/06/04 02:02:48;;;;;;;2.15;1.95;;;;;;;;;;5092352;28;20027;-64
2023/06/04 02:05:14;;;;;;;1.88;1.77;;;;;;;;;;5092675;28;20426;-64
2023/06/04 02:07:41;;;;;;;3.45;2.20;;;;;;;;;;5092637;28;20031;-64
2023/06/04 02:10:12;;;;;;;2.70;2.03;;;;;;;;;;5092124;28;20123;-63
2023/06/04 02:12:39;;;;;;;2.08;1.88;;;;;;;;;;5092271;28;20031;-63
2023/06/04 02:15:09;;;;;;;2.22;2.03;;;;;;;;;;5092631;28;20428;-64
2023/06/04 02:17:39;;;;;;;1.92;1.83;;;;;;;;;;5092253;28;20502;-64
2023/06/04 02:20:06;;;;;;;2.25;2.05;;;;;;;;;;5092315;28;20036;-64
2023/06/04 02:22:31;;;;;;;2.50;2.30;;;;;;;;;;5092210;28;20027;-63
2023/06/04 02:24:57;;;;;;;4.15;2.13;;;;;;;;;;5095404;28;20023;-63
2023/06/04 02:27:22;;;;;;;1.98;1.80;;;;;;;;;;5096192;28;20040;-63
2023/06/04 02:29:48;;;;;;;2.95;1.80;;;;;;;;;;5096496;28;20088;-63
2023/06/04 02:32:13;;;;;;;2.03;1.80;;;;;;;;;;5096064;28;20028;-63
2023/06/04 02:34:39;;;;;;;2.65;1.88;;;;;;;;;;5096369;28;20035;-64
2023/06/04 02:37:05;;;;;;;2.20;2.00;;;;;;;;;;5096003;28;20045;-64
2023/06/04 02:39:31;;;;;;;2.13;1.98;;;;;;;;;;5096005;28;20131;-64
2023/06/04 02:41:56;;;;;;;1.95;1.83;;;;;;;;;;5096181;28;20105;-64
2023/06/04 02:44:22;;;;;;;3.25;1.90;;;;;;;;;;5096213;28;20020;-63
2023/06/04 02:46:47;;;;;;;3.10;1.95;;;;;;;;;;5096066;28;20055;-63
2023/06/04 02:49:13;;;;;;;2.08;1.98;;;;;;;;;;5095911;28;20437;-64
2023/06/04 02:51:43;;;;;;;2.10;1.83;;;;;;;;;;5095729;28;20016;-63
2023/06/04 02:54:08;;;;;;;3.80;2.15;;;;;;;;;;5095798;28;20067;-63
2023/06/04 02:56:36;;;;;;;2.45;1.88;;;;;;;;;;5095711;28;20059;-63
2023/06/04 02:59:01;;;;;;;3.45;2.08;;;;;;;;;;5095699;28;20020;-63
2023/06/04 03:01:27;;;;;;;2.20;1.98;;;;;;;;;;5095507;28;20108;-63
2023/06/04 03:04:01;;;;;;;1.90;1.80;;;;;;;;;;5095562;28;20020;-63
2023/06/04 03:06:26;;;;;;;2.30;2.10;;;;;;;;;;5095639;28;20039;-64
2023/06/04 03:08:52;;;;;;;2.78;2.30;;;;;;;;;;5095483;28;20028;-64
2023/06/04 03:11:21;;;;;;;2.00;1.90;;;;;;;;;;5095415;28;20024;-64
2023/06/04 03:13:47;;;;;;;2.97;2.20;;;;;;;;;;5095676;28;20055;-63
2023/06/04 03:16:13;;;;;;;2.10;1.98;;;;;;;;;;5095579;28;20036;-63
2023/06/04 03:18:42;;;;;;;3.58;1.95;;;;;;;;;;5095220;28;20383;-64
2023/06/04 03:21:08;;;;;;;1.80;1.70;;;;;;;;;;5095185;28;20028;-63
2023/06/04 03:23:34;;;;;;;2.20;2.00;;;;;;;;;;5095214;28;20531;-63
2023/06/04 03:26:04;;;;;;;2.00;1.85;;;;;;;;;;5094947;28;20123;-63
2023/06/04 03:28:31;;;;;;;;;;;;;;;;;;5095561;28;20028;-63
2023/06/04 03:30:56;;;;;;;2.00;1.80;;;;;;;;;;5094967;28;19916;-63
2023/06/04 03:33:22;;;;;;;2.20;2.00;;;;;;;;;;5095010;28;20016;-64
2023/06/04 03:35:48;;;;;;;2.25;1.90;;;;;;;;;;5094114;28;20028;-63
2023/06/04 03:38:17;;;;;;;2.50;2.30;;;;;;;;;;5094609;28;20063;-64
2023/06/04 03:40:43;;;;;;;2.08;1.90;;;;;;;;;;5094910;28;20030;-64
2023/06/04 03:43:09;;;;;;;1.77;1.67;;;;;;;;;;5094750;28;20574;-63
2023/06/04 03:45:35;;;;;;;2.10;1.98;;;;;;;;;;5094620;28;20550;-63
2023/06/04 03:48:01;;;;;;;2.15;1.98;;;;;;;;;;5094973;28;20066;-64
2023/06/04 03:50:26;;;;;;;1.77;1.67;;;;;;;;;;5094659;28;20012;-64
2023/06/04 03:52:52;;;;;;;2.33;2.10;;;;;;;;;;5094613;28;20055;-64
2023/06/04 03:55:18;;;;;;;1.95;1.85;;;;;;;;;;5093301;28;20028;-64
2023/06/04 03:57:43;;;;;;;1.90;1.80;;;;;;;;;;5094418;28;20075;-63
2023/06/04 04:00:12;;;;;;;1.90;1.80;;;;;;;;;;5094511;28;20055;-64
2023/06/04 04:02:38;;;;;;;2.22;1.67;;;;;;;;;;5093470;28;20047;-64
2023/06/04 04:05:04;;;;;;;1.95;1.75;;;;;;;;;;5094247;28;20020;-64
2023/06/04 04:07:29;;;;;;;1.83;1.73;;;;;;;;;;5094584;28;20032;-64
2023/06/04 04:09:55;;;;;;;1.98;1.80;;;;;;;;;;5094306;28;20027;-64
2023/06/04 04:12:20;;;;;;;1.70;1.60;;;;;;;;;;5094518;28;20099;-63
2023/06/04 04:14:47;;;;;;;2.00;1.90;;;;;;;;;;5094122;28;20384;-64
2023/06/04 04:17:16;;;;;;;2.05;1.85;;;;;;;;;;5094099;28;20035;-64
2023/06/04 04:19:41;;;;;;;2.10;1.90;;;;;;;;;;5094027;28;20089;-64
2023/06/04 04:22:08;;;;;;;2.50;1.80;;;;;;;;;;5094256;28;20020;-63
2023/06/04 04:24:36;;;;;;;2.13;1.90;;;;;;;;;;5093895;28;20111;-64
2023/06/04 04:27:03;;;;;;;2.15;1.85;;;;;;;;;;5093924;28;20032;-64
2023/06/04 04:29:32;;;;;;;1.80;1.70;;;;;;;;;;5093840;28;20032;-64
2023/06/04 04:32:11;;;;;;;2.25;1.90;;;;;;;;;;5093881;28;20045;-64
2023/06/04 04:34:39;;;;;;;2.28;2.08;;;;;;;;;;5094078;28;20036;-63
2023/06/04 04:37:08;;;;;;;2.20;2.00;;;;;;;;;;5093634;28;20028;-64
2023/06/04 04:39:35;;;;;;;2.13;2.00;;;;;;;;;;5093552;28;20055;-63
2023/06/04 04:42:02;;;;;;;2.13;1.92;;;;;;;;;;5093605;28;20036;-64
2023/06/04 04:44:27;;;;;;;1.80;1.70;;;;;;;;;;5093586;28;20024;-64
2023/06/04 04:46:53;;;;;;;1.80;1.70;;;;;;;;;;5092623;28;20028;-64
2023/06/04 04:49:18;;;;;;;1.98;1.77;;;;;;;;;;5093691;28;20020;-64
2023/06/04 04:51:44;;;;;;;1.95;1.85;;;;;;;;;;5093719;28;20027;-64
2023/06/04 04:54:09;;;;;;;2.00;1.90;;;;;;;;;;5093458;28;20512;-64
2023/06/04 04:56:36;;;;;;;2.30;1.90;;;;;;;;;;5093663;28;20028;-64
2023/06/04 04:59:02;;;;;;;2.88;1.90;;;;;;;;;;5093358;28;20379;-64
2023/06/04 05:01:27;;;;;;;1.90;1.80;;;;;;;;;;5093326;28;20020;-65
2023/06/04 05:03:53;;;;;;;2.05;1.70;;;;;;;;;;5093280;28;20486;-64
2023/06/04 05:06:19;;;;;;;1.83;1.73;;;;;;;;;;5093408;28;20032;-65
2023/06/04 05:08:45;;;;;;;1.90;1.80;;;;;;;;;;5093219;28;20027;-65
2023/06/04 05:11:10;;;;;;;2.20;1.60;;;;;;;;;;5093122;28;20031;-65
2023/06/04 05:13:36;;;;;;;1.95;1.85;;;;;;;;;;5093045;28;20028;-66
2023/06/04 05:16:06;;;;;;;2.00;1.80;;;;;;;;;;5093249;28;20036;-66
2023/06/04 05:18:33;;;;;;;2.13;1.98;;;;;;;;;;5093337;28;20107;-65
2023/06/04 05:21:00;;;;;;;2.00;1.90;;;;;;;;;;5092899;28;20076;-65
2023/06/04 05:23:30;;;;;;;1.88;1.70;;;;;;;;;;5092943;28;20024;-66
2023/06/04 05:25:56;;;;;;;1.95;1.85;;;;;;;;;;5093005;28;20071;-66
2023/06/04 05:28:24;;;;;;;1.65;1.55;;;;;;;;;;5093150;28;20028;-65
2023/06/04 05:30:51;;;;;;;2.17;1.98;;;;;;;;;;5093051;28;20016;-65
2023/06/04 05:33:17;;;;;;;2.20;2.00;;;;;;;;;;5092850;28;20025;-65
2023/06/04 05:35:48;;;;;;;2.08;1.88;;;;;;;;;;5092993;28;20039;-65
2023/06/04 05:38:18;;;;;;;2.10;1.90;;;;;;;;;;5092772;28;20035;-66
2023/06/04 05:40:44;;;;;;;1.80;1.70;;;;;;;;;;5092691;28;20024;-65
2023/06/04 05:43:09;;;;;;;2.50;1.65;;;;;;;;;;5092713;28;20403;-65
2023/06/04 05:45:35;;;;;;;2.10;1.90;;;;;;;;;;5092498;28;20032;-65
2023/06/04 05:48:00;;;;;;;1.85;1.75;;;;;;;;;;5092667;28;20027;-65
2023/06/04 05:50:26;;;;;;;2.38;1.80;;;;;;;;;;5092536;28;20020;-65
2023/06/04 05:52:52;;;;;;;1.92;1.83;;;;;;;;;;5092826;28;20020;-66
2023/06/04 05:55:17;;;;;;;1.95;1.80;;;;;;;;;;5092714;28;20056;-66
2023/06/04 05:57:43;;;;;;;1.80;1.70;;;;;;;;;;5092661;28;20030;-66
2023/06/04 06:00:10;;;;;;;2.38;1.98;;;;;;;;;;5092363;28;20028;-65
2023/06/04 06:02:37;;;;;;;1.80;1.70;;;;;;;;;;5092438;28;20057;-66
2023/06/04 06:05:03;;;;;;;1.80;1.70;;;;;;;;;;5092232;28;20108;-66
2023/06/04 06:07:29;;;;;;;1.70;1.60;;;;;;;;;;5092456;28;20111;-65
2023/06/04 06:09:56;;;;;;;3.03;1.80;;;;;;;;;;5092549;28;20098;-65
2023/06/04 06:12:21;;;;;;;2.10;1.67;;;;;;;;;;5092614;28;20024;-66
2023/06/04 06:14:47;;;;;;;2.45;1.80;;;;;;;;;;5092294;28;20495;-65
2023/06/04 06:17:12;;;;;;;3.38;1.73;;;;;;;;;;5092559;28;20079;-65
2023/06/04 06:19:38;;;;;;;1.70;1.60;;;;;;;;;;5092596;28;20490;-65
2023/06/04 06:22:04;;;;;;;1.80;1.70;;;;;;;;;;5092324;28;20070;-65
2023/06/04 06:24:30;;;;;;;2.17;1.98;;;;;;;;;;5092067;28;20111;-67
2023/06/04 06:26:55;;;;;;;1.70;1.60;;;;;;;;;;5092287;28;20154;-65
2023/06/04 06:29:21;;;;;;;1.70;1.60;;;;;;;;;;5092447;28;20024;-66
2023/06/04 06:31:46;;;;;;;2.20;2.00;;;;;;;;;;5092138;28;20485;-65
2023/06/04 06:34:12;;;;;;;1.60;1.50;;;;;;;;;;5092430;28;20035;-65
2023/06/04 06:36:38;;;;;;;1.77;1.67;;;;;;;;;;5092441;28;20031;-66
2023/06/04 06:39:03;;;;;;;3.85;1.90;;;;;;;;;;5091916;28;20457;-65
2023/06/04 06:41:30;;;;;;;1.90;1.80;;;;;;;;;;5092453;28;20103;-65
2023/06/04 06:43:57;;;;;;;1.70;1.60;;;;;;;;;;5091964;28;20016;-65
2023/06/04 06:46:22;;;;;;;2.35;1.90;;;;;;;;;;5092276;28;20111;-65
2023/06/04 06:48:48;;;;;;;1.60;1.50;;;;;;;;;;5092259;28;20115;-65
2023/06/04 06:51:14;;;;;;;1.80;1.70;;;;;;;;;;5091969;28;20024;-67
2023/06/04 06:53:40;;;;;;;1.85;1.75;;;;;;;;;;5092251;28;20024;-64
2023/06/04 06:56:06;;;;;;;1.70;1.60;;;;;;;;;;5092284;28;20491;-66
2023/06/04 06:58:32;;;;;;;2.05;1.90;;;;;;;;;;5091914;28;20028;-66
2023/06/04 07:00:57;;;;;;;4.75;1.73;;;;;;;;;;5092313;28;20543;-67
2023/06/04 07:03:23;;;;;;;2.63;1.70;;;;;;;;;;5091841;28;20024;-68
2023/06/04 07:05:48;;;;;;;1.95;1.70;;;;;;;;;;5092065;28;20118;-67
2023/06/04 07:08:14;;;;;;;1.75;1.65;;;;;;;;;;5091745;28;20028;-67
2023/06/04 07:10:40;;;;;;;1.70;1.60;;;;;;;;;;5092909;28;20031;-68
2023/06/04 07:13:05;;;;;;;1.70;1.60;;;;;;;;;;5095375;28;20424;-65
2023/06/04 07:15:31;;;;;;;1.65;1.50;;;;;;;;;;5095383;28;20020;-65
2023/06/04 07:17:56;;;;;;;2.00;1.90;;;;;;;;;;5095466;28;20024;-66
2023/06/04 07:20:22;;;;;;;2.00;1.80;;;;;;;;;;5095291;28;20047;-66
2023/06/04 07:22:47;;;;;;;1.75;1.65;;;;;;;;;;5095171;28;20028;-65
2023/06/04 07:25:13;;;;;;;1.60;1.50;;;;;;;;;;5095061;28;20028;-65
2023/06/04 07:27:39;;;;;;;1.65;1.50;;;;;;;;;;5095049;28;20024;-65
2023/06/04 07:30:06;;;;;;;1.85;1.75;;;;;;;;;;5095407;28;20162;-65
2023/06/04 07:32:32;;;;;;;1.67;1.58;;;;;;;;;;5094912;28;20020;-65
2023/06/04 07:34:57;;;;;;;2.38;2.00;;;;;;;;;;5095321;28;20035;-66
2023/06/04 07:37:23;;;;;;;1.80;1.70;;;;;;;;;;5095169;28;20089;-66
2023/06/04 07:39:48;;;;;;;1.80;1.70;;;;;;;;;;5094791;28;20387;-65
2023/06/04 07:42:14;;;;;;;1.48;1.38;;;;;;;;;;5095102;28;20016;-65
2023/06/04 07:44:39;;;;;;;1.80;1.70;;;;;;;;;;5095025;28;20036;-65
2023/06/04 07:47:05;;;;;;;1.70;1.60;;;;;;;;;;5095045;28;20036;-64
2023/06/04 07:49:31;;;;;;;2.20;1.70;;;;;;;;;;5094961;28;20478;-66
2023/06/04 07:51:57;;;;;;;2.15;1.73;;;;;;;;;;5094551;28;20020;-65
2023/06/04 07:54:23;;;;;;;1.50;1.40;;;;;;;;;;5094957;28;20380;-66
2023/06/04 07:56:48;;;;;;;1.70;1.60;;;;;;;;;;5094797;28;20016;-66
2023/06/04 07:59:14;;;;;;;2.05;1.60;;;;;;;;;;5094504;28;20357;-67
2023/06/04 08:01:40;;;;;;;1.70;1.60;;;;;;;;;;5094478;28;20100;-66
2023/06/04 08:04:05;;;;;;;1.73;1.60;;;;;;;;;;5094377;28;20388;-67
2023/06/04 08:06:35;;;;;;;1.77;1.67;;;;;;;;;;5094325;28;20069;-66
2023/06/04 08:09:00;;;;;;;1.60;1.50;;;;;;;;;;5094681;28;20123;-66
2023/06/04 08:11:26;;;;;;;1.70;1.60;;;;;;;;;;5094291;28;20547;-66
2023/06/04 08:13:51;;;;;;;1.52;1.42;;;;;;;;;;5094270;28;20043;-65
2023/06/04 08:16:17;;;;;;;2.00;1.80;;;;;;;;;;5094188;28;20045;-66
2023/06/04 08:18:42;;;;;;;1.90;1.80;;;;;;;;;;5094188;28;20378;-66
2023/06/04 08:21:10;;;;;;;1.67;1.58;;;;;;;;;;5094050;28;20028;-66
2023/06/04 08:23:36;;;;;;;1.67;1.58;;;;;;;;;;5093125;28;20020;-65
2023/06/04 08:26:02;;;;;;;2.00;1.80;;;;;;;;;;5093947;28;20040;-66
2023/06/04 08:28:27;;;;;;;1.50;1.40;;;;;;;;;;5094004;28;20034;-65
2023/06/04 08:30:52;;;;;;;2.03;1.88;;;;;;;;;;5094197;28;20028;-66
2023/06/04 08:33:18;;;;;;;1.70;1.55;;;;;;;;;;5093849;28;20028;-66
2023/06/04 08:35:43;;;;;;;1.77;1.67;;;;;;;;;;5093851;28;20028;-67
2023/06/04 08:38:09;;;;;;;1.58;1.48;;;;;;;;;;5093933;28;20109;-67
2023/06/04 08:40:35;;;;;;;1.85;1.70;;;;;;;;;;5092554;28;20490;-65
2023/06/04 08:43:01;;;;;;;1.70;1.60;;;;;;;;;;5093764;28;20504;-66
2023/06/04 08:45:27;;;;;;;1.60;1.50;;;;;;;;;;5093940;28;20028;-65
2023/06/04 08:47:53;;;;;;;1.40;1.30;;;;;;;;;;5093631;28;20028;-66
2023/06/04 08:50:22;;;;;;;1.40;1.30;;;;;;;;;;5093620;28;20016;-65
2023/06/04 08:52:52;;;;;;;1.60;1.50;;;;;;;;;;5093583;28;20070;-66
2023/06/04 08:55:18;;;;;;;1.85;1.67;;;;;;;;;;5093646;28;20032;-65
2023/06/04 08:57:44;;;;;;;1.88;1.50;;;;;;;;;;5093588;28;20031;-66
2023/06/04 09:00:10;;;;;;;1.50;1.40;;;;;;;;;;5093784;28;20047;-66
2023/06/04 09:02:39;;;;;;;1.50;1.40;;;;;;;;;;5093348;28;20031;-65
2023/06/04 09:05:10;;;;;;;1.67;1.57;;;;;;;;;;5093592;28;20098;-66
2023/06/04 09:07:37;;;;;;;1.50;1.40;;;;;;;;;;5093262;28;20304;-66
2023/06/04 09:10:04;;;;;;;1.65;1.55;;;;;;;;;;5093490;28;20426;-66
2023/06/04 09:12:31;;;;;;;1.70;1.50;;;;;;;;;;5093415;28;20472;-66
2023/06/04 09:14:57;;;;;;;1.60;1.50;;;;;;;;;;5093257;28;20039;-65
2023/06/04 09:17:24;;;;;;;1.65;1.55;;;;;;;;;;5093395;28;20024;-65
2023/06/04 09:19:50;;;;;;;1.98;1.77;;;;;;;;;;5093149;28;20483;-65
2023/06/04 09:22:16;;;;;;;1.60;1.50;;;;;;;;;;5093321;28;20142;-64
2023/06/04 09:24:46;;;;;;;1.50;1.40;;;;;;;;;;5093458;28;20039;-66
2023/06/04 09:27:16;;;;;;;1.83;1.60;;;;;;;;;;5092909;28;20073;-66
2023/06/04 09:29:55;;;;;;;1.60;1.50;;;;;;;;;;5092954;28;20032;-66
2023/06/04 09:32:29;;;;;;;1.60;1.50;;;;;;;;;;5093385;28;20028;-66
2023/06/04 09:34:57;;;;;;;1.75;1.65;;;;;;;;;;5092982;28;20097;-66
2023/06/04 09:37:23;;;;;;;2.00;1.58;;;;;;;;;;5092831;28;20020;-66
2023/06/04 09:39:55;;;;;;;2.00;1.70;;;;;;;;;;5092775;28;20050;-66
2023/06/04 09:42:22;;;;;;;1.60;1.50;;;;;;;;;;5092896;28;20020;-66
2023/06/04 09:44:48;;;;;;;1.67;1.58;;;;;;;;;;5092894;28;20035;-65
2023/06/04 09:47:13;;;;;;;1.60;1.50;;;;;;;;;;5091468;28;20418;-65
2023/06/04 09:49:47;;;;;;;1.60;1.50;;;;;;;;;;5092819;28;20073;-65
2023/06/04 09:52:13;;;;;;;1.40;1.30;;;;;;;;;;5092724;28;20027;-67
2023/06/04 09:54:41;;;;;;;1.58;1.48;;;;;;;;;;5092702;28;20016;-66
2023/06/04 09:57:18;;;;;;;1.60;1.50;;;;;;;;;;5092590;28;20016;-66
2023/06/04 09:59:49;;;;;;;1.73;1.63;;;;;;;;;;5092613;28;20024;-66
2023/06/04 10:02:21;;;;;;;1.70;1.60;;;;;;;;;;5092381;28;20020;-66
2023/06/04 10:04:56;;;;;;;2.05;1.30;;;;;;;;;;5092677;28;20028;-65
2023/06/04 10:07:23;;;;;;;1.88;1.70;;;;;;;;;;5092565;28;20031;-65
2023/06/04 10:09:51;;;;;;;1.70;1.60;;;;;;;;;;5092547;28;20024;-65
2023/06/04 10:12:20;;;;;;;1.95;1.48;;;;;;;;;;5092382;28;20468;-66
2023/06/04 10:14:58;;;;;;;1.77;1.47;;;;;;;;;;5092439;28;20510;-67
2023/06/04 10:17:27;;;;;;;1.45;1.35;;;;;;;;;;5092410;28;20020;-66
2023/06/04 10:19:54;;;;;;;1.70;1.60;;;;;;;;;;5092593;28;20034;-66
2023/06/04 10:22:20;;;;;;;1.33;1.23;;;;;;;;;;5092429;28;20475;-66
2023/06/04 10:24:46;;;;;;;1.70;1.55;;;;;;;;;;5092577;28;20024;-66
2023/06/04 10:27:13;;;;;;;1.42;1.33;;;;;;;;;;5092526;28;20494;-65
2023/06/04 10:29:39;;;;;;;1.55;1.45;;;;;;;;;;5092617;28;20085;-66
2023/06/04 10:32:05;;;;;;;1.73;1.63;;;;;;;;;;5092239;28;20111;-66
2023/06/04 10:34:31;;;;;;;1.70;1.60;;;;;;;;;;5092325;28;20052;-66
2023/06/04 10:36:57;;;;;;;1.70;1.60;;;;;;;;;;5092401;28;20069;-65
2023/06/04 10:39:28;;;;;;;1.60;1.50;;;;;;;;;;5092158;28;20037;-67
2023/06/04 10:42:03;;;;;;;1.60;1.50;;;;;;;;;;5092134;28;20028;-66
2023/06/04 10:44:44;;;;;;;1.75;1.55;;;;;;;;;;5093149;28;20437;-66
2023/06/04 10:47:30;;;;;;;1.60;1.50;;;;;;;;;;5096081;28;20020;-65
2023/06/04 10:50:12;;;;;;;1.48;1.38;;;;;;;;;;5096110;28;20035;-66
2023/06/04 10:52:39;;;;;;;1.77;1.67;;;;;;;;;;5095957;28;20081;-65
2023/06/04 10:55:07;;;;;;;1.30;1.20;;;;;;;;;;5095992;28;20024;-67
2023/06/04 10:57:32;;;;;;;1.67;1.58;;;;;;;;;;5095893;28;20028;-66
2023/06/04 11:00:00;;;;;;;1.23;1.13;;;;;;;;;;5096132;28;20081;-67
2023/06/04 11:02:26;;;;;;;1.38;1.27;;;;;;;;;;5095701;28;20261;-65
2023/06/04 11:05:06;;;;;;;1.58;1.48;;;;;;;;;;5095538;28;20024;-65
2023/06/04 11:07:43;;;;;;;1.40;1.30;;;;;;;;;;5095989;28;20032;-65
2023/06/04 11:10:10;;;;;;;1.45;1.35;;;;;;;;;;5095817;28;20028;-65
2023/06/04 11:12:52;;;;;;;2.88;1.40;;;;;;;;;;5095751;28;20434;-66
2023/06/04 11:15:18;;;;;;;1.58;1.38;;;;;;;;;;5095797;28;20388;-65
2023/06/04 11:17:54;;;;;;;1.50;1.38;;;;;;;;;;5095489;28;20020;-66
2023/06/04 11:20:22;;;;;;;1.60;1.50;;;;;;;;;;5095624;28;20028;-66
2023/06/04 11:22:51;;;;;;;2.25;1.50;;;;;;;;;;5095607;28;20391;-66
2023/06/04 11:25:17;;;;;;;1.70;1.60;;;;;;;;;;5095540;28;20082;-65
2023/06/04 11:27:43;;;;;;;1.50;1.40;;;;;;;;;;5095238;28;20106;-66
2023/06/04 11:30:09;;;;;;;1.50;1.40;;;;;;;;;;5095460;28;20051;-66
2023/06/04 11:32:34;;;;;;;1.40;1.30;;;;;;;;;;5095376;28;20069;-66
2023/06/04 11:35:07;;;;;;;1.50;1.40;;;;;;;;;;5093794;28;20028;-66
2023/06/04 11:37:34;;;;;;;1.70;1.60;;;;;;;;;;5095222;28;20020;-66
2023/06/04 11:40:00;;;;;;;1.50;1.40;;;;;;;;;;5095301;28;20051;-65
2023/06/04 11:42:29;;;;;;;1.50;1.40;;;;;;;;;;5095148;28;20016;-65
2023/06/04 11:44:56;;;;;;;1.35;1.25;;;;;;;;;;5093504;28;20078;-65
2023/06/04 11:47:22;;;;;;;2.17;1.70;;;;;;;;;;5094938;28;20099;-66
2023/06/04 11:49:48;;;;;;;1.50;1.40;;;;;;;;;;5095168;28;20016;-65
2023/06/04 11:52:14;;;;;;;1.50;1.40;;;;;;;;;;5095003;28;20391;-65
2023/06/04 11:54:40;;;;;;;1.55;1.45;;;;;;;;;;5095019;28;20417;-65
2023/06/04 11:57:05;;;;;;;1.45;1.35;;;;;;;;;;5094220;28;20460;-65
2023/06/04 11:59:32;;;;;;;1.48;1.30;;;;;;;;;;5094552;28;20032;-66
2023/06/04 12:01:57;;;;;;;1.40;1.30;;;;;;;;;;5094491;28;20016;-65
2023/06/04 12:04:23;;;;;;;1.40;1.30;;;;;;;;;;5094391;28;20375;-65
2023/06/04 12:06:57;;;;;;;1.60;1.50;;;;;;;;;;5094301;28;20031;-66
2023/06/04 12:09:24;;;;;;;1.50;1.40;;;;;;;;;;5095021;28;20028;-65
2023/06/04 12:11:50;;;;;;;1.65;1.55;;;;;;;;;;5094602;28;20024;-66
2023/06/04 12:14:20;;;;;;;1.90;1.50;;;;;;;;;;5094680;28;20375;-65
2023/06/04 12:17:05;;;;;;;1.40;1.30;;;;;;;;;;5094524;28;20097;-65
2023/06/04 12:19:31;;;;;;;1.50;1.40;;;;;;;;;;5094238;28;20483;-66
2023/06/04 12:22:05;;;;;;;1.40;1.30;;;;;;;;;;5094187;28;20027;-65
2023/06/04 12:24:34;;;;;;;1.98;1.60;;;;;;;;;;5094369;28;20020;-65
2023/06/04 12:27:09;;;;;;;2.58;1.50;;;;;;;;;;5093950;28;20032;-64
2023/06/04 12:29:35;;;;;;;1.40;1.30;;;;;;;;;;5094385;28;20417;-66
2023/06/04 12:32:09;;;;;;;1.50;1.40;;;;;;;;;;5094170;28;20102;-64
2023/06/04 12:34:35;;;;;;;1.60;1.50;;;;;;;;;;5093910;28;20035;-65
2023/06/04 12:37:03;;;;;;;1.40;1.30;;;;;;;;;;5094186;28;20085;-65
2023/06/04 12:39:29;;;;;;;1.65;1.42;;;;;;;;;;5093607;28;20075;-65
2023/06/04 12:41:55;;;;;;;1.60;1.50;;;;;;;;;;5093757;28;20031;-65
2023/06/04 12:44:21;;;;;;;1.60;1.50;;;;;;;;;;5093785;28;20024;-66
2023/06/04 12:46:46;;;;;;;1.30;1.20;;;;;;;;;;5093881;28;20032;-65
2023/06/04 12:49:12;;;;;;;1.33;1.25;;;;;;;;;;5093672;28;20024;-66
2023/06/04 12:51:38;;;;;;;1.60;1.50;;;;;;;;;;5093876;28;20035;-66
2023/06/04 12:54:04;;;;;;;1.63;1.30;;;;;;;;;;5093545;28;20028;-66
2023/06/04 12:56:30;;;;;;;1.40;1.30;;;;;;;;;;5093434;28;20482;-66
2023/06/04 12:58:57;;;;;;;1.50;1.40;;;;;;;;;;5093494;28;20112;-66
2023/06/04 13:01:22;;;;;;;1.58;1.48;;;;;;;;;;5093410;28;20031;-65
2023/06/04 13:03:48;;;;;;;1.45;1.35;;;;;;;;;;5093488;28;20032;-66
2023/06/04 13:06:14;;;;;;;1.50;1.40;;;;;;;;;;5093144;28;20032;-66
2023/06/04 13:08:40;;;;;;;1.35;1.25;;;;;;;;;;5092634;28;20036;-65
2023/06/04 13:11:06;;;;;;;1.73;1.30;;;;;;;;;;5093040;28;20081;-65
2023/06/04 13:13:31;;;;;;;1.45;1.35;;;;;;;;;;5093459;28;20072;-66
2023/06/04 13:15:57;;;;;;;1.60;1.50;;;;;;;;;;5093128;28;20024;-65
2023/06/04 13:18:23;;;;;;;2.13;1.40;;;;;;;;;;5093279;28;20058;-65
2023/06/04 13:20:49;;;;;;;1.90;1.30;;;;;;;;;;5093583;28;20399;-66
2023/06/04 13:23:14;;;;;;;1.45;1.35;;;;;;;;;;5093029;28;20118;-65
2023/06/04 13:25:40;;;;;;;1.35;1.30;;;;;;;;;;5092893;28;20028;-66
2023/06/04 13:28:07;;;;;;;1.52;1.42;;;;;;;;;;5092862;28;20032;-66
2023/06/04 13:30:36;;;;;;;1.40;1.30;;;;;;;;;;5092830;28;20028;-66
2023/06/04 13:33:02;;;;;;;1.52;1.42;;;;;;;;;;5092819;28;20027;-65
2023/06/04 13:35:28;;;;;;;1.20;1.20;;;;;;;;;;5093193;28;20035;-66
2023/06/04 13:37:53;;;;;;;1.48;1.38;;;;;;;;;;5092752;28;20047;-66
2023/06/04 13:40:19;;;;;;;1.33;1.30;;;;;;;;;;5092621;28;20036;-66
2023/06/04 13:42:45;;;;;;;1.50;1.40;;;;;;;;;;5093033;28;20069;-65
2023/06/04 13:45:11;;;;;;;1.60;1.50;;;;;;;;;;5092605;28;20035;-65
2023/06/04 13:47:36;;;;;;;1.58;1.48;;;;;;;;;;5093222;28;20027;-65
2023/06/04 13:50:03;;;;;;;1.50;1.40;;;;;;;;;;5092647;28;20081;-66
2023/06/04 13:52:29;;;;;;;1.75;1.65;;;;;;;;;;5092851;28;20027;-66
2023/06/04 13:54:55;;;;;;;1.60;1.50;;;;;;;;;;5092650;28;20053;-66
2023/06/04 13:57:21;;;;;;;1.40;1.30;;;;;;;;;;5092813;28;20032;-66
2023/06/04 13:59:46;;;;;;;1.42;1.30;;;;;;;;;;5092835;28;20024;-65
2023/06/04 14:02:12;;;;;;;1.52;1.42;;;;;;;;;;5092561;28;20542;-66
2023/06/04 14:04:37;;;;;;;1.45;1.35;;;;;;;;;;5092723;28;20107;-66
2023/06/04 14:07:03;;;;;;;1.40;1.30;;;;;;;;;;5092519;28;20020;-65
2023/06/04 14:09:28;;;;;;;1.58;1.38;;;;;;;;;;5092668;28;20459;-65
2023/06/04 14:11:54;;;;;;;1.38;1.27;;;;;;;;;;5092193;28;20043;-65
2023/06/04 14:14:23;;;;;;;1.60;1.50;;;;;;;;;;5092345;28;20035;-66
2023/06/04 14:16:49;;;;;;;1.40;1.30;;;;;;;;;;5092432;28;20036;-65
2023/06/04 14:19:15;;;;;;;1.52;1.42;;;;;;;;;;5093059;28;20035;-65
2023/06/04 14:21:41;;;;;;;1.98;1.50;;;;;;;;;;5096419;28;20024;-65
2023/06/04 14:24:07;;;;;;;1.55;1.45;;;;;;;;;;5096358;28;20024;-66
2023/06/04 14:26:33;;;;;;;1.50;1.40;;;;;;;;;;5095011;28;20028;-65
2023/06/04 14:28:59;;;;;;;2.25;1.50;;;;;;;;;;5096334;28;20062;-64
2023/06/04 14:31:25;;;;;;;1.33;1.23;;;;;;;;;;5096475;28;20068;-65
2023/06/04 14:33:50;;;;;;;1.42;1.33;;;;;;;;;;5096581;28;20046;-66
2023/06/04 14:36:16;;;;;;;1.38;1.27;;;;;;;;;;5096460;28;20020;-65
2023/06/04 14:38:41;;;;;;;1.50;1.40;;;;;;;;;;5096195;28;20445;-65
2023/06/04 14:41:07;;;;;;;1.10;1.10;;;;;;;;;;5096166;28;20051;-65